Terminal Aerodrome Forecast
Issued by NWS

Home | Current Version | Previous Version | Text Only | Print | Product List | Glossary On
Versions: 1 2 3 4 5 6 7 8 9 10 11 12 13 14 15 16 17 18 19 20 21 22 23 24 25 26
000
FTUS45 KLKN 250520
TAFEKO
TAF
KEKO 250520Z 2506/2606 VRB05KT P6SM FEW100 BKN150
     FM251800 23010G20KT P6SM BKN150
     FM252100 25015G25KT P6SM SCT150 BKN200
     FM260400 VRB05KT P6SM SCT120 BKN200=

USA.gov is the U.S. government's official web portal to all federal, state and local government web resources and services.